Terminal Aerodrome Forecast
Issued by NWS

Home | Current Version | Previous Version | Text Only | Print | Product List | Glossary On
Versions: 1 2 3 4 5 6 7 8 9 10 11 12 13 14 15 16 17 18 19 20 21 22 23 24 25 26 27
000
FTUS41 KBTV 010533
TAFPBG
TAF
KPBG 010533Z 0106/0206 14004KT P6SM VCSH BKN080
     FM010800 16007KT P6SM -SHRA SCT028 OVC040
      TEMPO 0109/0113 4SM SHRA BR OVC025
     FM011300 16008KT P6SM VCSH BKN022 OVC035
     FM011600 17010G18KT 6SM -SHRA BR SCT035 OVC040
      TEMPO 0116/0118 3SM -TSRA BR OVC025CB=

USA.gov is the U.S. government's official web portal to all federal, state and local government web resources and services.